createdAt,value
2017-08-11T00:04:21.791Z,8.80
2017-08-11T00:09:28.355Z,10.67
2017-08-11T00:14:31.822Z,13.00
2017-08-11T00:19:35.284Z,11.20
2017-08-11T00:24:38.468Z,13.30
2017-08-11T00:29:42.561Z,9.57
2017-08-11T00:34:45.764Z,10.60
2017-08-11T00:45:25.051Z,10.30
2017-08-11T00:50:29.278Z,8.83
2017-08-11T00:55:33.098Z,11.60
2017-08-11T01:00:36.609Z,14.67
2017-08-11T01:05:40.330Z,14.43
2017-08-11T01:10:43.515Z,28.53
2017-08-11T01:15:47.361Z,21.90
2017-08-11T01:20:51.266Z,18.10
2017-08-11T01:25:54.810Z,20.70
2017-08-11T01:30:58.094Z,22.40
2017-08-11T01:36:01.452Z,24.90
2017-08-11T01:41:05.653Z,20.93
2017-08-11T01:46:19.522Z,19.80
2017-08-11T01:56:57.522Z,21.33
2017-08-11T02:02:00.728Z,18.03
2017-08-11T02:07:03.895Z,22.90
2017-08-11T02:12:07.085Z,19.53
2017-08-11T02:17:11.129Z,20.63
2017-08-11T02:22:15.058Z,24.63
2017-08-11T02:27:18.237Z,25.57
2017-08-11T02:32:21.416Z,22.27
2017-08-11T02:37:24.595Z,22.77
2017-08-11T02:42:27.780Z,25.10
2017-08-11T02:47:30.965Z,32.13
2017-08-11T02:52:34.926Z,26.13
2017-08-11T02:57:38.220Z,24.20
2017-08-11T03:02:42.165Z,27.10
2017-08-11T03:07:45.345Z,25.27
2017-08-11T03:12:48.613Z,28.07
2017-08-11T03:17:51.805Z,25.70
2017-08-11T03:22:55.003Z,25.07
2017-08-11T03:27:58.189Z,25.50
2017-08-11T03:33:01.406Z,21.77
2017-08-11T03:38:04.582Z,25.90
2017-08-11T03:43:08.536Z,25.13
2017-08-11T03:48:11.717Z,28.83
2017-08-11T03:53:15.672Z,31.50
2017-08-11T03:58:18.956Z,27.60
2017-08-11T04:03:22.155Z,25.00
2017-08-11T04:08:26.209Z,30.87
2017-08-11T04:13:29.399Z,24.07
2017-08-11T04:18:33.079Z,26.20
2017-08-11T04:23:36.478Z,29.20
2017-08-11T04:28:39.684Z,29.03
2017-08-11T04:33:42.889Z,24.97
2017-08-11T04:38:46.088Z,28.00
2017-08-11T04:43:49.251Z,28.47
2017-08-11T04:48:53.217Z,26.73
2017-08-11T04:53:56.501Z,38.20
2017-08-11T04:58:59.859Z,36.73
2017-08-11T05:04:03.048Z,43.57
2017-08-11T05:09:07.671Z,39.20
2017-08-11T05:14:10.896Z,39.30
2017-08-11T05:19:14.086Z,35.67
2017-08-11T05:24:17.332Z,35.43
2017-08-11T05:29:20.509Z,34.00
2017-08-11T05:34:23.724Z,32.10
2017-08-11T05:39:26.926Z,33.60
2017-08-11T05:44:30.158Z,34.17
2017-08-11T05:49:33.360Z,37.73
2017-08-11T05:54:36.558Z,41.67
2017-08-11T05:59:39.753Z,39.43
2017-08-11T06:04:42.946Z,43.40
2017-08-11T06:09:46.133Z,41.33
2017-08-11T06:14:49.330Z,41.07
2017-08-11T06:19:53.323Z,38.83
2017-08-11T06:24:56.505Z,40.57
2017-08-11T06:29:59.686Z,42.53
2017-08-11T06:35:02.877Z,34.80
2017-08-11T06:40:06.835Z,45.20
2017-08-11T06:45:10.116Z,37.03
2017-08-11T06:50:14.057Z,45.43
2017-08-11T06:55:17.240Z,51.27
2017-08-11T07:00:21.392Z,43.00
2017-08-11T07:05:24.604Z,40.20
2017-08-11T07:10:27.829Z,36.20
2017-08-11T07:15:31.026Z,34.00
2017-08-11T07:20:34.214Z,31.03
2017-08-11T07:25:37.390Z,28.80
2017-08-11T07:30:40.583Z,28.10
2017-08-11T07:35:43.790Z,28.20
2017-08-11T07:40:47.035Z,29.27
2017-08-11T07:45:50.962Z,33.50
2017-08-11T07:50:54.225Z,30.00
2017-08-11T07:55:57.414Z,31.70
2017-08-11T08:01:00.608Z,28.77
2017-08-11T08:06:03.801Z,37.80
2017-08-11T08:11:07.007Z,25.13
2017-08-11T08:16:10.204Z,29.50
2017-08-11T08:21:14.160Z,35.73
2017-08-11T08:26:17.465Z,32.50
2017-08-11T08:31:20.665Z,28.30
2017-08-11T08:36:23.890Z,30.97
2017-08-11T08:41:27.082Z,25.93
2017-08-11T08:46:30.270Z,24.63
2017-08-11T08:51:33.458Z,19.07
2017-08-11T08:56:37.465Z,14.93
2017-08-11T09:01:40.714Z,12.57
2017-08-11T09:06:44.645Z,13.13
2017-08-11T09:11:47.842Z,9.30
2017-08-11T09:16:51.020Z,7.43
2017-08-11T09:21:54.211Z,6.10
2017-08-11T09:27:15.402Z,5.77
2017-08-11T09:32:46.207Z,6.17
2017-08-11T09:37:49.397Z,5.37
2017-08-11T09:42:52.608Z,3.23
2017-08-11T09:47:55.796Z,2.20
2017-08-11T09:52:59.005Z,2.10
2017-08-11T09:58:02.182Z,2.30
2017-08-11T10:03:05.385Z,2.57
2017-08-11T10:08:08.560Z,4.83
2017-08-11T10:13:12.543Z,3.00
2017-08-11T10:18:15.726Z,2.33
2017-08-11T10:23:19.050Z,3.47
2017-08-11T10:28:22.243Z,1.93
2017-08-11T10:33:25.442Z,1.97
2017-08-11T10:38:28.602Z,2.67
2017-08-11T10:43:31.800Z,2.30
2017-08-11T10:48:35.005Z,2.60
2017-08-11T10:53:38.178Z,2.23
2017-08-11T10:58:41.342Z,2.10
2017-08-11T11:03:44.521Z,3.23
2017-08-11T11:08:47.718Z,2.73
2017-08-11T11:13:50.923Z,2.50
2017-08-11T11:18:54.245Z,1.73
2017-08-11T11:23:57.431Z,2.27
2017-08-11T11:29:00.644Z,5.00
2017-08-11T11:34:03.826Z,1.90
2017-08-11T11:39:07.000Z,1.83
2017-08-11T11:44:10.958Z,3.50
2017-08-11T11:49:14.142Z,1.40
2017-08-11T11:54:18.113Z,2.00
2017-08-11T11:59:21.390Z,1.60
2017-08-11T12:04:25.278Z,3.50
2017-08-11T12:09:28.463Z,1.90
2017-08-11T12:14:31.650Z,1.70
2017-08-11T12:19:34.818Z,1.20
2017-08-11T12:24:37.990Z,1.70
2017-08-11T12:29:41.179Z,2.10
2017-08-11T12:34:44.370Z,2.30
2017-08-11T12:39:47.577Z,2.63
2017-08-11T12:44:50.785Z,2.93
2017-08-11T12:49:53.991Z,3.23
2017-08-11T12:54:57.176Z,2.80
2017-08-11T13:00:01.133Z,3.67
2017-08-11T13:05:04.327Z,3.43
2017-08-11T13:10:07.535Z,7.00
2017-08-11T13:15:10.723Z,3.67
2017-08-11T13:20:14.683Z,7.00
2017-08-11T13:25:17.865Z,3.23
2017-08-11T13:30:21.172Z,4.40
2017-08-11T13:35:25.142Z,8.83
2017-08-11T13:40:28.329Z,3.70
2017-08-11T13:45:31.554Z,4.43
2017-08-11T13:50:34.737Z,4.17
2017-08-11T13:55:37.995Z,4.00
2017-08-11T14:00:41.195Z,4.83
2017-08-11T14:05:44.381Z,4.93
2017-08-11T14:10:47.567Z,5.33
2017-08-11T14:15:50.757Z,3.83
2017-08-11T14:20:53.931Z,5.77
2017-08-11T14:25:57.133Z,4.40
2017-08-11T14:31:00.335Z,5.43
2017-08-11T14:36:03.593Z,5.23
2017-08-11T14:41:06.798Z,9.03
2017-08-11T14:46:09.986Z,7.03
2017-08-11T14:51:13.897Z,5.97
2017-08-11T14:56:17.840Z,7.60
2017-08-11T15:01:21.064Z,6.57
2017-08-11T15:06:24.272Z,7.33
2017-08-11T15:11:27.455Z,6.93
2017-08-11T15:16:31.481Z,6.90
2017-08-11T15:21:35.431Z,7.17
2017-08-11T15:26:38.650Z,12.47
2017-08-11T15:31:41.838Z,8.53
2017-08-11T15:36:45.026Z,10.40
2017-08-11T15:41:48.280Z,10.30
2017-08-11T15:46:51.473Z,11.53
2017-08-11T15:51:54.702Z,10.17
2017-08-11T15:56:57.922Z,14.23
2017-08-11T16:02:01.509Z,9.67
2017-08-11T16:07:04.977Z,12.43
2017-08-11T16:12:08.182Z,16.73
2017-08-11T16:17:11.350Z,14.07
2017-08-11T16:22:14.655Z,16.30
2017-08-11T16:27:17.869Z,14.70
2017-08-11T16:32:21.070Z,17.70
2017-08-11T16:37:24.309Z,24.20
2017-08-11T16:42:27.717Z,22.60
2017-08-11T16:47:30.910Z,24.47
2017-08-11T16:52:34.099Z,40.80
2017-08-11T16:57:37.313Z,28.17
2017-08-11T17:02:40.518Z,40.83
2017-08-11T17:07:43.711Z,20.67
2017-08-11T17:12:46.912Z,22.20
2017-08-11T17:17:50.097Z,26.30
2017-08-11T17:22:53.298Z,17.87
2017-08-11T17:27:57.314Z,20.47
2017-08-11T17:33:01.275Z,18.77
2017-08-11T17:38:05.464Z,19.37
2017-08-11T17:43:08.762Z,19.00
2017-08-11T17:48:11.947Z,15.40
2017-08-11T17:53:15.140Z,23.33
2017-08-11T17:58:18.321Z,16.77
2017-08-11T18:03:21.555Z,24.70
2017-08-11T18:08:24.797Z,20.53
2017-08-11T18:13:27.985Z,24.50
2017-08-11T18:18:31.188Z,24.43
2017-08-11T18:23:34.381Z,28.70
2017-08-11T18:28:37.868Z,19.27
2017-08-11T18:33:41.336Z,22.60
2017-08-11T18:38:44.510Z,23.83
2017-08-11T18:43:47.761Z,32.83
2017-08-11T18:48:50.980Z,23.13
2017-08-11T18:53:54.938Z,28.83
2017-08-11T18:58:58.661Z,24.00
2017-08-11T19:04:02.080Z,23.83
2017-08-11T19:09:05.517Z,39.23
2017-08-11T19:14:08.711Z,29.67
2017-08-11T19:19:11.925Z,30.23
2017-08-11T19:24:15.326Z,29.23
2017-08-11T19:29:18.570Z,27.70
2017-08-11T19:34:21.816Z,25.63
2017-08-11T19:39:25.012Z,29.40
2017-08-11T19:44:28.993Z,30.10
2017-08-11T19:49:32.205Z,32.47
2017-08-11T19:54:35.382Z,39.87
2017-08-11T19:59:38.601Z,30.73
2017-08-11T20:04:41.789Z,36.50
2017-08-11T20:09:44.965Z,45.80
2017-08-11T20:20:23.614Z,29.53
2017-08-11T20:25:27.208Z,32.07
2017-08-11T20:30:30.723Z,43.83
2017-08-11T20:35:33.930Z,40.23
2017-08-11T20:40:37.721Z,50.50
2017-08-11T20:45:41.100Z,45.83
2017-08-11T20:50:45.366Z,46.07
2017-08-11T20:55:48.566Z,47.73
2017-08-11T21:00:51.751Z,52.93
2017-08-11T21:05:55.168Z,54.67
2017-08-11T21:10:59.068Z,46.17
2017-08-11T21:16:02.400Z,53.43
2017-08-11T21:21:06.140Z,47.27
2017-08-11T21:26:09.729Z,48.77
2017-08-11T21:31:12.941Z,48.50
2017-08-11T21:36:16.127Z,50.37
2017-08-11T21:41:20.091Z,52.30
2017-08-11T21:46:23.299Z,46.97
2017-08-11T21:51:26.491Z,45.00
2017-08-11T21:56:29.680Z,43.87
2017-08-11T22:01:33.681Z,51.17
2017-08-11T22:06:36.865Z,45.87
2017-08-11T22:11:40.090Z,47.50
2017-08-11T22:16:43.293Z,50.83
2017-08-11T22:21:46.489Z,56.87
2017-08-11T22:26:49.694Z,48.17
2017-08-11T22:31:52.950Z,43.83
2017-08-11T22:36:56.173Z,45.07
2017-08-11T22:41:59.464Z,37.50
2017-08-11T22:47:03.425Z,34.43
2017-08-11T22:52:06.686Z,42.90
2017-08-11T22:57:09.880Z,34.00
2017-08-11T23:02:13.837Z,40.07
2017-08-11T23:07:17.038Z,38.40
2017-08-11T23:12:20.210Z,39.33
2017-08-11T23:17:23.436Z,42.80
2017-08-11T23:22:27.419Z,39.20
2017-08-11T23:27:30.634Z,34.70
2017-08-11T23:32:33.839Z,46.90
2017-08-11T23:37:37.015Z,39.53
2017-08-11T23:42:40.194Z,38.67
2017-08-11T23:47:44.148Z,44.10
2017-08-11T23:52:47.332Z,42.90
2017-08-11T23:57:50.520Z,37.97
